Christmas Island, Australian Islands

6:56 PM CXT on May 23, 2015 (GMT +0700)
Christmas Island | | Change Station
CLOSE
Current Station
Personal Weather Station
Location: Christmas Island, WESTERN AUSTRALIA
Elevation: 732 ft
Nearby Weather Stations

Elev 732 ft 10.42 °S, 105.69 °E | Updated 28 seconds ago

Clear
Clear
76.6 °F
Feels Like 78 °F
N
6.0
Wind Variable Wind from East
Gusts 12.0 mph

Today
High -- | Low -- °F
--% Chance of Precip.
Yesterday
High -- | Low -- °F
Precip. -- in
6:06 AM 5:41 PM
Waxing Crescent, 29% visible
Pressure 29.92 in
Visibility 6.2 miles
Clouds
Heat Index 78 °F
Dew Point 68 °F
Humidity 74%
Rainfall 0.00 in
Snow Depth Not available.
UV Not available.
Pollen Not available.
Air Quality Not available.
Flu Activity Not available.
METAR YPXM 231100Z AUTO 09005KT 9999 // NCD 25/20 Q1013

More Conditions Fewer Conditions

Pressure 29.92 in
Visibility 6.2 miles
Clouds
Heat Index 78 °F
Dew Point 68 °F
Humidity 74%
Rainfall 0.00 in
Snow Depth Not available.
UV Not available.
Pollen Not available.
Air Quality Not available.
Flu Activity Not available.
METAR YPXM 231100Z AUTO 09005KT 9999 // NCD 25/20 Q1013

More Conditions Fewer Conditions

10-Day Weather Forecast

Almanac

Astronomy

May. 23, 2015 Rise Set
Actual Time
Civil Twilight
Nautical Twilight
Astronomical Twilight
Moon
Length of Visible Light
Length of Day
Tomorrow will be .
, % of the Moon is Illuminated

Today's Extremes

Country Highs Country Lows

Community

WunderPhotos

Upload Photos

1,823,435 photos uploaded!

WunderBlogs® & News

Nearby

Air Quality

  Air Quality AQ Index Pollutant
Not available.

Snow Depth

Station Depth Elevation

Earthquake Activity

City Distance Mag. Time & Date
Minimum magnitude displayed is 2.5.

Coastal Water Temperatures

Place Temperature

Stations

Nearby Weather Stations

Station Location Temp. Windchill Dew Point Humidity Wind Precip. Elev Updated Type